createdAt,value
2023-04-30T22:23:22.769Z,47.87
2023-04-30T22:25:49.237Z,47.84
2023-04-30T22:28:19.310Z,47.59
2023-04-30T22:30:46.152Z,48.82
2023-04-30T22:33:12.681Z,49.44
2023-04-30T22:35:39.310Z,47.93
2023-04-30T22:38:07.216Z,49.08
2023-04-30T22:40:35.059Z,49.48
2023-04-30T22:43:01.888Z,48.50
2023-04-30T22:45:30.139Z,48.92
2023-04-30T22:47:58.919Z,48.60
2023-04-30T22:50:27.208Z,49.45
2023-04-30T22:52:54.364Z,49.34
2023-04-30T22:55:20.967Z,49.53
2023-04-30T22:57:47.347Z,49.59
2023-04-30T23:00:14.269Z,49.47
2023-04-30T23:02:40.725Z,49.80
2023-04-30T23:05:07.755Z,49.49
2023-04-30T23:07:34.137Z,49.96
2023-04-30T23:10:00.584Z,50.01
2023-04-30T23:12:27.558Z,50.00
2023-04-30T23:14:53.987Z,49.96
2023-04-30T23:17:20.579Z,50.23
2023-04-30T23:19:46.971Z,49.99
2023-04-30T23:22:13.348Z,50.04
2023-04-30T23:24:41.083Z,50.66
2023-04-30T23:27:08.045Z,50.81
2023-04-30T23:29:36.132Z,50.77
2023-04-30T23:32:02.981Z,50.90
2023-04-30T23:34:29.410Z,51.26
2023-04-30T23:36:55.823Z,51.10
2023-04-30T23:39:24.251Z,50.97
2023-04-30T23:41:52.153Z,51.46
2023-04-30T23:44:18.601Z,52.10
2023-04-30T23:46:45.091Z,52.44
2023-04-30T23:49:11.560Z,52.46
2023-04-30T23:51:37.953Z,53.33
2023-04-30T23:54:05.743Z,52.67
2023-04-30T23:56:33.850Z,53.13
2023-04-30T23:59:00.371Z,53.51
